createdAt,value
2023-05-07T00:02:29.219Z,12.65
2023-05-07T00:05:14.924Z,12.56
2023-05-07T00:07:59.802Z,12.51
2023-05-07T00:10:43.918Z,12.36
2023-05-07T00:13:28.427Z,12.48
2023-05-07T00:16:12.414Z,12.22
2023-05-07T00:18:56.313Z,12.34
2023-05-07T00:21:41.605Z,12.23
2023-05-07T00:24:25.502Z,12.17
2023-05-07T00:27:09.346Z,12.10
2023-05-07T00:29:53.363Z,12.10
2023-05-07T00:32:37.807Z,12.14
2023-05-07T00:35:21.915Z,12.08
2023-05-07T00:38:07.138Z,12.12
2023-05-07T00:40:51.673Z,11.94
2023-05-07T00:43:35.555Z,11.84
2023-05-07T00:46:20.036Z,11.89
2023-05-07T00:49:04.199Z,11.78
2023-05-07T00:51:48.516Z,11.81
2023-05-07T00:54:34.736Z,11.69
2023-05-07T00:57:19.293Z,11.81
2023-05-07T01:00:03.697Z,11.65
2023-05-07T01:02:49.847Z,11.61
2023-05-07T01:05:35.043Z,11.49
2023-05-07T01:08:20.245Z,11.74
2023-05-07T01:11:05.819Z,11.71
2023-05-07T01:13:51.967Z,11.72
2023-05-07T01:16:35.989Z,11.66
2023-05-07T01:19:21.024Z,11.73
2023-05-07T01:22:09.710Z,11.52
2023-05-07T01:25:05.127Z,11.67
2023-05-07T01:27:50.214Z,11.65
2023-05-07T01:30:36.952Z,11.67
2023-05-07T01:33:24.479Z,11.72
2023-05-07T01:36:10.330Z,11.65
2023-05-07T01:38:54.918Z,11.33
2023-05-07T01:41:40.659Z,11.67
2023-05-07T01:44:24.844Z,11.58
2023-05-07T01:47:09.358Z,11.55
2023-05-07T01:49:53.316Z,11.43
2023-05-07T01:52:38.608Z,11.61
2023-05-07T01:55:22.949Z,10.69
2023-05-07T01:58:08.192Z,11.28
2023-05-07T02:00:52.179Z,11.35
2023-05-07T02:03:36.102Z,11.30
2023-05-07T02:06:27.222Z,11.30
2023-05-07T02:09:18.728Z,11.45
2023-05-07T02:12:05.659Z,11.44
2023-05-07T02:14:51.731Z,11.44
2023-05-07T02:17:36.701Z,11.51
2023-05-07T02:20:20.659Z,11.54
2023-05-07T02:23:24.448Z,11.63
2023-05-07T02:26:08.696Z,11.57
2023-05-07T02:28:53.760Z,11.58
2023-05-07T02:31:39.513Z,11.38
2023-05-07T02:34:23.709Z,11.43
2023-05-07T02:37:07.611Z,11.45
2023-05-07T02:39:51.521Z,11.54
2023-05-07T02:42:35.437Z,11.42
2023-05-07T02:45:19.691Z,11.40
2023-05-07T02:48:07.436Z,11.21
2023-05-07T02:50:51.455Z,11.53
2023-05-07T02:53:35.433Z,11.52
2023-05-07T02:56:19.512Z,11.26
2023-05-07T02:59:03.527Z,11.10
2023-05-07T03:01:51.798Z,11.36
2023-05-07T03:04:37.321Z,11.21
2023-05-07T03:07:21.329Z,11.18
2023-05-07T03:10:06.140Z,11.37
2023-05-07T03:12:50.471Z,11.18
2023-05-07T03:15:35.383Z,11.18
2023-05-07T03:18:19.662Z,11.24
2023-05-07T03:21:05.207Z,11.24
2023-05-07T03:23:49.220Z,11.25
2023-05-07T03:26:33.418Z,11.06
2023-05-07T03:29:18.095Z,11.35
2023-05-07T03:32:02.211Z,11.15
2023-05-07T03:34:46.237Z,11.37
2023-05-07T03:37:32.800Z,11.42
2023-05-07T03:40:16.896Z,11.39
2023-05-07T03:43:07.910Z,11.64
2023-05-07T03:45:56.317Z,11.58
2023-05-07T03:48:43.688Z,11.58
2023-05-07T03:51:29.690Z,11.71
2023-05-07T03:54:14.935Z,11.65
2023-05-07T03:57:02.806Z,11.67
2023-05-07T03:59:46.765Z,11.72
2023-05-07T04:02:31.580Z,11.91
2023-05-07T04:05:16.907Z,11.93
2023-05-07T04:08:04.331Z,12.06
2023-05-07T04:10:58.672Z,12.00
2023-05-07T04:13:45.794Z,12.27
2023-05-07T04:16:29.880Z,12.14
2023-05-07T04:19:13.877Z,12.58
2023-05-07T04:21:58.000Z,12.28
2023-05-07T04:24:42.291Z,12.40
2023-05-07T04:27:29.172Z,12.41
2023-05-07T04:30:14.854Z,12.62
2023-05-07T04:32:59.108Z,12.69
2023-05-07T04:35:45.532Z,12.72
2023-05-07T04:38:29.800Z,12.83
2023-05-07T04:41:16.193Z,12.81
2023-05-07T04:44:02.866Z,12.86
2023-05-07T04:46:49.324Z,12.83
2023-05-07T04:49:33.282Z,13.11
2023-05-07T04:52:17.864Z,12.95
2023-05-07T04:55:02.236Z,13.22
2023-05-07T04:57:51.568Z,13.36
2023-05-07T05:00:37.062Z,13.36
2023-05-07T05:03:23.252Z,13.61
2023-05-07T05:06:07.599Z,13.46
2023-05-07T05:08:52.129Z,13.65
2023-05-07T05:11:35.984Z,13.77
2023-05-07T05:14:19.977Z,13.85
2023-05-07T05:17:05.365Z,13.85
2023-05-07T05:19:49.445Z,13.82
2023-05-07T05:22:33.225Z,14.30
2023-05-07T05:25:17.937Z,14.33
2023-05-07T05:28:02.452Z,14.47
2023-05-07T05:30:47.678Z,14.40
2023-05-07T05:33:34.908Z,14.27
2023-05-07T05:36:21.853Z,14.66
2023-05-07T05:39:07.508Z,14.84
2023-05-07T05:41:51.437Z,14.62
2023-05-07T05:44:35.666Z,14.92
2023-05-07T05:47:19.625Z,15.16
2023-05-07T05:50:07.068Z,15.32
2023-05-07T05:52:51.249Z,15.09
2023-05-07T05:55:36.657Z,15.46
2023-05-07T05:58:20.788Z,15.30
2023-05-07T06:01:10.696Z,15.41
2023-05-07T06:03:55.431Z,15.58
2023-05-07T06:06:41.048Z,15.16
2023-05-07T06:09:25.409Z,15.53
2023-05-07T06:12:09.513Z,15.59
2023-05-07T06:14:54.556Z,15.99
2023-05-07T06:17:38.736Z,15.67
2023-05-07T06:20:23.589Z,15.90
2023-05-07T06:23:09.739Z,15.52
2023-05-07T06:25:54.146Z,16.15
2023-05-07T06:28:42.413Z,16.29
2023-05-07T06:31:32.572Z,16.48
2023-05-07T06:34:20.918Z,16.45
2023-05-07T06:37:06.331Z,16.72
2023-05-07T06:40:09.965Z,16.93
2023-05-07T06:42:56.774Z,16.96
2023-05-07T06:45:49.091Z,16.93
2023-05-07T06:48:33.368Z,16.94
2023-05-07T06:51:22.112Z,17.27
2023-05-07T06:54:06.744Z,17.18
2023-05-07T06:56:54.860Z,16.97
2023-05-07T06:59:41.299Z,17.49
2023-05-07T07:02:26.229Z,17.34
2023-05-07T07:05:10.790Z,17.26
2023-05-07T07:07:55.794Z,17.27
2023-05-07T07:10:40.397Z,17.50
2023-05-07T07:13:26.552Z,17.45
2023-05-07T07:16:10.912Z,17.69
2023-05-07T07:18:55.492Z,17.64
2023-05-07T07:21:39.673Z,17.39
2023-05-07T07:24:23.638Z,17.94
2023-05-07T07:27:12.480Z,17.80
2023-05-07T07:29:58.569Z,18.04
2023-05-07T07:32:43.046Z,18.02
2023-05-07T07:35:27.244Z,18.04
2023-05-07T07:38:11.452Z,18.40
2023-05-07T07:40:56.189Z,18.23
2023-05-07T07:43:41.387Z,18.30
2023-05-07T07:46:28.141Z,18.43
2023-05-07T07:49:12.406Z,18.46
2023-05-07T07:51:57.592Z,18.37
2023-05-07T07:54:41.616Z,18.73
2023-05-07T07:57:26.175Z,18.92
2023-05-07T08:00:11.739Z,19.40
2023-05-07T08:03:04.447Z,19.08
2023-05-07T08:05:52.766Z,18.90
2023-05-07T08:08:42.312Z,18.59
2023-05-07T08:11:27.204Z,19.14
2023-05-07T08:14:13.815Z,19.19
2023-05-07T08:16:58.091Z,18.97
2023-05-07T08:19:43.912Z,19.18
2023-05-07T08:22:31.048Z,19.46
2023-05-07T08:25:15.404Z,19.46
2023-05-07T08:28:00.170Z,19.34
2023-05-07T08:30:44.623Z,19.55
2023-05-07T08:33:28.898Z,19.26
2023-05-07T08:36:16.055Z,19.47
2023-05-07T08:39:00.462Z,19.12
2023-05-07T08:41:47.118Z,19.17
2023-05-07T08:44:35.902Z,19.49
2023-05-07T08:47:22.173Z,19.55
2023-05-07T08:50:10.174Z,19.70
2023-05-07T08:52:57.659Z,19.92
2023-05-07T08:55:42.194Z,20.01
2023-05-07T08:58:26.503Z,19.76
2023-05-07T09:01:12.533Z,19.84
2023-05-07T09:03:57.493Z,19.60
2023-05-07T09:06:43.319Z,19.64
2023-05-07T09:09:31.390Z,19.82
2023-05-07T09:12:15.495Z,19.84
2023-05-07T09:14:59.671Z,19.90
2023-05-07T09:17:46.125Z,19.98
2023-05-07T09:20:33.167Z,20.02
2023-05-07T09:23:18.688Z,20.17
2023-05-07T09:26:05.936Z,19.63
2023-05-07T09:28:51.530Z,20.12
2023-05-07T09:31:39.284Z,19.99
2023-05-07T09:34:25.679Z,20.07
2023-05-07T09:37:10.261Z,20.11
2023-05-07T09:39:54.553Z,20.45
2023-05-07T09:42:42.466Z,20.25
2023-05-07T09:45:28.195Z,20.20
2023-05-07T09:48:13.983Z,20.47
2023-05-07T09:51:00.058Z,20.03
2023-05-07T09:53:48.399Z,20.33
2023-05-07T09:56:33.347Z,20.31
2023-05-07T09:59:19.862Z,20.79
2023-05-07T10:02:06.533Z,20.13
2023-05-07T10:04:57.156Z,20.55
2023-05-07T10:07:49.010Z,20.33
2023-05-07T10:10:36.582Z,20.83
2023-05-07T10:13:24.213Z,21.20
2023-05-07T10:16:13.502Z,21.20
2023-05-07T10:19:02.547Z,20.65
2023-05-07T10:21:53.688Z,20.77
2023-05-07T10:24:39.190Z,21.61
2023-05-07T10:27:29.267Z,21.81
2023-05-07T10:30:33.165Z,21.52
2023-05-07T10:33:24.616Z,20.98
2023-05-07T10:36:09.442Z,20.69
2023-05-07T10:38:54.611Z,20.58
2023-05-07T10:41:40.216Z,20.58
2023-05-07T10:44:29.483Z,20.33
2023-05-07T10:47:20.101Z,21.00
2023-05-07T10:50:25.842Z,20.57
2023-05-07T10:53:28.686Z,20.59
2023-05-07T10:56:39.200Z,21.84
2023-05-07T10:59:44.757Z,22.09
2023-05-07T11:03:08.439Z,22.34
2023-05-07T11:06:17.191Z,21.54
2023-05-07T11:09:27.447Z,21.39
2023-05-07T11:12:15.309Z,21.63
2023-05-07T11:15:07.999Z,21.03
2023-05-07T11:17:58.872Z,20.82
2023-05-07T11:20:48.767Z,20.77
2023-05-07T11:24:00.202Z,21.76
2023-05-07T11:26:53.884Z,22.37
2023-05-07T11:29:40.168Z,21.69
2023-05-07T11:32:30.777Z,21.46
2023-05-07T11:35:18.141Z,21.61
2023-05-07T11:38:07.186Z,21.45
2023-05-07T11:40:55.368Z,22.15
2023-05-07T11:43:41.223Z,22.44
2023-05-07T11:46:25.544Z,22.72
2023-05-07T11:49:09.653Z,22.80
2023-05-07T11:51:53.811Z,22.41
2023-05-07T11:54:40.231Z,22.21
2023-05-07T11:57:26.359Z,22.00
2023-05-07T12:00:11.900Z,21.92
2023-05-07T12:02:58.940Z,21.60
2023-05-07T12:05:43.740Z,21.91
2023-05-07T12:08:27.742Z,22.28
2023-05-07T12:11:14.876Z,22.38
2023-05-07T12:14:00.441Z,22.81
2023-05-07T12:16:45.275Z,22.44
2023-05-07T12:19:30.362Z,21.85
2023-05-07T12:22:15.227Z,21.54
2023-05-07T12:25:00.719Z,21.67
2023-05-07T12:27:54.321Z,21.64
2023-05-07T12:30:41.392Z,21.58
2023-05-07T12:33:27.694Z,21.60
2023-05-07T12:36:14.573Z,21.60
2023-05-07T12:38:58.555Z,21.33
2023-05-07T12:41:57.677Z,21.26
2023-05-07T12:44:44.488Z,21.60
2023-05-07T12:47:29.986Z,21.44
2023-05-07T12:50:15.285Z,20.65
2023-05-07T12:53:00.685Z,20.87
2023-05-07T12:55:46.077Z,21.27
2023-05-07T12:58:31.512Z,20.97
2023-05-07T13:01:16.855Z,21.03
2023-05-07T13:04:07.015Z,21.04
2023-05-07T13:06:54.176Z,20.79
2023-05-07T13:09:38.590Z,21.16
2023-05-07T13:12:22.613Z,20.91
2023-05-07T13:15:07.520Z,21.33
2023-05-07T13:17:51.573Z,21.14
2023-05-07T13:20:37.010Z,20.64
2023-05-07T13:23:21.121Z,20.92
2023-05-07T13:26:14.519Z,21.09
2023-05-07T13:29:09.471Z,21.08
2023-05-07T13:31:54.660Z,21.21
2023-05-07T13:34:38.941Z,20.89
2023-05-07T13:37:24.472Z,21.00
2023-05-07T13:40:10.216Z,21.27
2023-05-07T13:42:54.407Z,21.30
2023-05-07T13:45:38.235Z,21.47
2023-05-07T13:48:22.091Z,21.72
2023-05-07T13:51:06.032Z,22.06
2023-05-07T13:53:51.497Z,21.93
2023-05-07T13:56:35.593Z,22.16
2023-05-07T13:59:19.520Z,21.50
2023-05-07T14:02:03.350Z,21.56
2023-05-07T14:04:47.319Z,21.84
2023-05-07T14:07:31.347Z,21.84
2023-05-07T14:10:16.628Z,21.69
2023-05-07T14:13:00.731Z,20.76
2023-05-07T14:15:47.575Z,21.12
2023-05-07T14:18:31.634Z,20.18
2023-05-07T14:21:15.552Z,20.47
2023-05-07T14:23:59.434Z,20.69
2023-05-07T14:26:44.766Z,21.26
2023-05-07T14:29:28.619Z,22.08
2023-05-07T14:32:12.665Z,22.05
2023-05-07T14:34:56.514Z,22.40
2023-05-07T14:37:40.434Z,21.92
2023-05-07T14:40:24.549Z,21.79
2023-05-07T14:43:09.887Z,22.09
2023-05-07T14:45:54.665Z,22.48
2023-05-07T14:48:38.463Z,21.22
2023-05-07T14:51:23.173Z,21.21
2023-05-07T14:54:07.046Z,21.94
2023-05-07T14:56:51.389Z,22.10
2023-05-07T14:59:36.634Z,21.92
2023-05-07T15:02:21.222Z,20.58
2023-05-07T15:05:06.079Z,20.87
2023-05-07T15:07:49.920Z,20.75
2023-05-07T15:10:41.330Z,20.97
2023-05-07T15:13:25.486Z,21.47
2023-05-07T15:16:10.963Z,21.62
2023-05-07T15:18:54.849Z,20.62
2023-05-07T15:21:39.439Z,21.35
2023-05-07T15:24:23.239Z,21.14
2023-05-07T15:27:07.504Z,21.34
2023-05-07T15:29:51.763Z,20.76
2023-05-07T15:32:37.407Z,20.46
2023-05-07T15:35:23.202Z,20.38
2023-05-07T15:38:09.721Z,20.14
2023-05-07T15:40:53.887Z,19.51
2023-05-07T15:43:46.937Z,20.24
2023-05-07T15:46:31.080Z,19.73
2023-05-07T15:49:16.618Z,19.77
2023-05-07T15:52:00.691Z,20.07
2023-05-07T15:54:44.778Z,19.85
2023-05-07T15:57:28.880Z,19.85
2023-05-07T16:00:14.089Z,19.37
2023-05-07T16:02:58.299Z,19.18
2023-05-07T16:05:43.946Z,19.16
2023-05-07T16:08:28.343Z,19.13
2023-05-07T16:11:12.585Z,18.67
2023-05-07T16:13:56.594Z,18.63
2023-05-07T16:16:41.192Z,18.84
2023-05-07T16:19:25.251Z,18.23
2023-05-07T16:22:11.331Z,18.37
2023-05-07T16:24:55.374Z,18.47
2023-05-07T16:27:39.506Z,18.65
2023-05-07T16:30:23.725Z,18.22
2023-05-07T16:33:08.277Z,18.13
2023-05-07T16:35:55.856Z,18.16
2023-05-07T16:38:41.455Z,18.06
2023-05-07T16:41:26.385Z,18.07
2023-05-07T16:44:11.013Z,18.09
2023-05-07T16:46:55.019Z,18.06
2023-05-07T16:49:39.081Z,17.82
2023-05-07T16:52:23.214Z,17.79
2023-05-07T16:55:09.632Z,17.95
2023-05-07T16:57:53.777Z,17.72
2023-05-07T17:00:49.198Z,17.50
2023-05-07T17:03:35.168Z,17.40
2023-05-07T17:06:19.400Z,17.21
2023-05-07T17:09:03.587Z,17.15
2023-05-07T17:11:49.072Z,17.40
2023-05-07T17:14:33.268Z,17.43
2023-05-07T17:17:17.369Z,17.49
2023-05-07T17:20:01.588Z,17.18
2023-05-07T17:22:49.244Z,16.87
2023-05-07T17:25:33.691Z,16.78
2023-05-07T17:28:19.240Z,16.58
2023-05-07T17:31:03.197Z,16.57
2023-05-07T17:33:47.616Z,16.71
2023-05-07T17:36:33.190Z,16.35
2023-05-07T17:39:17.357Z,15.89
2023-05-07T17:42:01.664Z,15.65
2023-05-07T17:44:47.278Z,15.64
2023-05-07T17:47:31.583Z,15.59
2023-05-07T17:50:17.012Z,15.32
2023-05-07T17:53:02.177Z,14.88
2023-05-07T17:55:47.327Z,15.33
2023-05-07T17:58:31.725Z,14.89
2023-05-07T18:01:17.584Z,14.82
2023-05-07T18:04:01.905Z,14.47
2023-05-07T18:06:46.381Z,14.44
2023-05-07T18:09:30.482Z,13.65
2023-05-07T18:12:14.551Z,13.70
2023-05-07T18:14:58.936Z,14.08
2023-05-07T18:17:44.616Z,13.97
2023-05-07T18:20:28.790Z,13.80
2023-05-07T18:23:13.125Z,13.71
2023-05-07T18:25:57.235Z,13.71
2023-05-07T18:28:41.610Z,13.64
2023-05-07T18:31:25.600Z,13.98
2023-05-07T18:34:10.979Z,14.16
2023-05-07T18:36:54.878Z,14.11
2023-05-07T18:39:38.908Z,14.33
2023-05-07T18:42:23.087Z,13.77
2023-05-07T18:45:08.199Z,13.48
2023-05-07T18:47:52.782Z,13.34
2023-05-07T18:50:38.266Z,13.18
2023-05-07T18:53:22.342Z,13.24
2023-05-07T18:56:08.887Z,13.12
2023-05-07T18:58:52.909Z,13.08
2023-05-07T19:01:37.114Z,13.04
2023-05-07T19:04:21.217Z,13.21
2023-05-07T19:07:06.930Z,13.03
2023-05-07T19:10:04.221Z,13.17
2023-05-07T19:12:51.397Z,13.07
2023-05-07T19:15:35.789Z,12.94
2023-05-07T19:18:19.959Z,12.83
2023-05-07T19:21:03.809Z,12.52
2023-05-07T19:23:51.264Z,12.24
2023-05-07T19:26:35.545Z,12.71
2023-05-07T19:29:20.035Z,12.92
2023-05-07T19:32:04.691Z,13.34
2023-05-07T19:34:48.623Z,13.39
2023-05-07T19:37:32.589Z,13.38
2023-05-07T19:40:18.394Z,13.45
2023-05-07T19:43:03.984Z,13.63
2023-05-07T19:45:48.334Z,13.37
2023-05-07T19:48:32.341Z,13.16
2023-05-07T19:51:16.407Z,13.26
2023-05-07T19:54:03.686Z,12.93
2023-05-07T19:56:54.446Z,12.91
2023-05-07T19:59:38.319Z,12.41
2023-05-07T20:02:22.344Z,12.67
2023-05-07T20:05:07.032Z,12.70
2023-05-07T20:07:50.921Z,12.40
2023-05-07T20:10:37.774Z,12.60
2023-05-07T20:13:23.233Z,12.38
2023-05-07T20:16:07.369Z,12.50
2023-05-07T20:18:51.367Z,12.17
2023-05-07T20:21:35.326Z,12.12
2023-05-07T20:24:20.100Z,12.05
2023-05-07T20:27:06.843Z,11.76
2023-05-07T20:29:52.274Z,11.60
2023-05-07T20:32:36.543Z,11.64
2023-05-07T20:35:20.592Z,11.71
2023-05-07T20:38:04.543Z,11.50
2023-05-07T20:40:48.432Z,11.58
2023-05-07T20:43:32.220Z,11.71
2023-05-07T20:46:22.857Z,11.76
2023-05-07T20:49:07.095Z,11.90
2023-05-07T20:51:51.079Z,11.73
2023-05-07T20:54:40.087Z,11.71
2023-05-07T20:57:24.245Z,11.64
2023-05-07T21:00:09.493Z,11.66
2023-05-07T21:02:54.649Z,11.16
2023-05-07T21:05:38.680Z,11.39
2023-05-07T21:08:23.014Z,11.30
2023-05-07T21:11:08.029Z,11.48
2023-05-07T21:13:52.010Z,11.46
2023-05-07T21:16:36.084Z,11.31
2023-05-07T21:19:23.588Z,11.44
2023-05-07T21:22:07.764Z,11.63
2023-05-07T21:24:51.714Z,11.65
2023-05-07T21:27:35.659Z,11.68
2023-05-07T21:30:19.553Z,11.60
2023-05-07T21:33:04.879Z,11.59
2023-05-07T21:35:51.443Z,11.60
2023-05-07T21:38:35.366Z,11.34
2023-05-07T21:41:20.459Z,11.13
2023-05-07T21:44:04.499Z,11.15
2023-05-07T21:46:48.367Z,11.48
2023-05-07T21:49:32.246Z,11.51
2023-05-07T21:52:18.570Z,11.36
2023-05-07T21:55:02.472Z,11.33
2023-05-07T21:58:01.313Z,11.13
2023-05-07T22:00:48.800Z,10.53
2023-05-07T22:03:32.718Z,10.72
2023-05-07T22:06:21.656Z,11.01
2023-05-07T22:09:07.928Z,10.72
2023-05-07T22:11:51.752Z,11.09
2023-05-07T22:14:35.929Z,11.07
2023-05-07T22:17:19.794Z,10.82
2023-05-07T22:20:04.093Z,10.71
2023-05-07T22:22:50.244Z,10.68
2023-05-07T22:25:37.379Z,10.30
2023-05-07T22:28:21.466Z,10.20
2023-05-07T22:31:05.418Z,10.50
2023-05-07T22:33:49.284Z,10.54
2023-05-07T22:36:33.360Z,10.67
2023-05-07T22:39:17.149Z,10.84
2023-05-07T22:42:02.504Z,10.93
2023-05-07T22:44:46.415Z,10.87
2023-05-07T22:47:31.004Z,11.15
2023-05-07T22:50:15.400Z,10.79
2023-05-07T22:52:59.390Z,10.85
2023-05-07T22:55:43.243Z,10.62
2023-05-07T22:58:28.452Z,10.93
2023-05-07T23:01:16.482Z,10.85
2023-05-07T23:04:00.434Z,10.62
2023-05-07T23:06:44.282Z,10.53
2023-05-07T23:09:28.154Z,10.44
2023-05-07T23:12:12.452Z,10.37
2023-05-07T23:14:57.862Z,10.54
2023-05-07T23:17:41.854Z,10.44
2023-05-07T23:20:25.713Z,10.49
2023-05-07T23:23:09.640Z,10.65
2023-05-07T23:25:53.746Z,10.63
2023-05-07T23:28:37.655Z,10.62
2023-05-07T23:31:22.992Z,10.53
2023-05-07T23:34:06.813Z,10.66
2023-05-07T23:36:51.229Z,10.69
2023-05-07T23:39:35.242Z,10.59
2023-05-07T23:42:18.976Z,10.66
2023-05-07T23:45:02.943Z,10.42
2023-05-07T23:47:52.423Z,10.32
2023-05-07T23:50:36.585Z,10.37
2023-05-07T23:53:20.451Z,10.35
2023-05-07T23:56:04.547Z,10.20
2023-05-07T23:58:48.398Z,9.99
